Logo AVAMET
Benvolgut visitant, si us plau, ingressa Recuperar contrasenya
AVAMET paisatges

Pego Mostalla

Dades diàries. Acumulats / Últims 30 dies disponibles

Data Temperatura (°C) Humitat rel. (%) Pressió rel. (hPa) Vent (km/h) Precipitació
Mínima Mitjana Màxima Amplitud
tèrmica
Mínima Mitjana Màxima Mínima Mitjana Màxima Predom. Mitjana Ràfega
màxima
Total
(mm)
Índex-n
Mínima Mitjana Màxima Mínima Mitjana Màxima n
0 a 1
P0 max
mm 5'
Dades mensuals acumulades fins l'últim dia disponible
04/2020 8,0 11,8 15,0 15,2 15,0 19,2 25,0 17,0 31 80 97 1.004 1.017 1.027   1,2 35,2 35,0
Dades anuals acumulades fins l'últim dia disponible
2020 3,7 9,7 15,9 13,6 11,4 18,1 28,0 24,3 21 78 98 1.004 1.022 1.034   4,1 63,3 287,1
Últims 30 dies disponibles
26-04-2020 11,6     16,5     20,9 9,3 59 79 96 1.009 1.011 1.013 SSO 0,6 13,0 0,0
25-04-2020 11,7     14,9     17,8 6,1 75 86 92 1.008 1.011 1.014 SSE 1,0 13,0 0,0
24-04-2020 11,5     16,3     22,1 10,6 42 72 95 1.012 1.016 1.019 SSO 1,7 20,4 0,0
23-04-2020 11,4     15,8     19,9 8,5 62 80 94 1.017 1.019 1.021 SSE 0,5 13,0 0,0
22-04-2020 13,2     15,5     19,6 6,4 60 79 93 1.006 1.013 1.020 SSO 4,6 32,0 6,2
21-04-2020 13,6     16,2     18,5 4,9 47 57 79 1.004 1.006 1.007 ONO 7,6 35,2 1,0
20-04-2020 15,0     21,0     25,0 10,0 42 58 70 1.005 1.006 1.008 SSO 2,8 32,0 0,0
18-04-2020 13,7     14,7     15,9 2,2 95 96 97 1.016 1.016 1.018 SSO 0,0 9,3 0,0
17-04-2020 12,2     15,3     18,3 6,1 87 93 97 1.016 1.018 1.019 S 1,2 14,8 3,1 0,11 0,60
16-04-2020 13,5     15,9     18,9 5,4 70 88 97 1.017 1.019 1.020 S 0,5 9,3 0,0
15-04-2020 14,5     15,1     16,2 1,7 95 96 97 1.014 1.017 1.020 S 1,3 13,7 11,9 0,22 0,70
14-04-2020 14,2     15,6     17,7 3,5 87 92 95 1.012 1.014 1.016 SE 2,2 20,4 0,0
13-04-2020 12,2     15,1     19,3 7,1 66 85 94 1.008 1.010 1.013 SSO 1,1 20,4 1,5
12-04-2020 11,6     15,0     19,1 7,5 63 78 91 1.014 1.018 1.022 S 0,0 0,0 3,6
11-04-2020 11,3     16,2     22,5 11,2 31 66 90 1.020 1.022 1.024 S 0,6 24,8 0,0
10-04-2020 10,9     15,2     19,7 8,8 54 80 95 1.021 1.022 1.024 SSO 0,0 6,1 0,0
09-04-2020 10,8     14,6     18,7 7,9 63 85 94 1.021 1.022 1.024 SSO 0,0 9,3 0,0
08-04-2020 9,5     14,1     18,7 9,2 56 81 96 1.022 1.025 1.027 SSO 0,2 10,0 0,0
07-04-2020 11,3     14,8     19,3 8,0 44 80 97 1.025 1.026 1.027 SSO 0,4 11,5 0,0
06-04-2020 9,7     14,5     20,3 10,6 64 81 95 1.021 1.022 1.025 SO 0,2 9,6 0,0
05-04-2020 9,2     13,1     18,3 9,1 49 73 89 1.019 1.020 1.021 SSO 0,3 9,6 0,0
04-04-2020 8,0     13,6     19,9 11,9 43 70 90 1.018 1.019 1.021 SSO 1,1 22,2 0,0
03-04-2020 9,9     13,9     18,4 8,5 44 74 95 1.014 1.016 1.019 SO 0,9 13,7 2,5
02-04-2020 11,6     12,8     15,0 3,4 77 91 96 1.010 1.012 1.015 SE 0,8 11,5 5,2
31-03-2020 8,8     11,3     15,1 6,3 87 92 96 1.009 1.010 1.013 SSO 1,4 16,7 8,4
30-03-2020 9,7     12,9     18,5 8,8 45 71 91 1.012 1.013 1.015 SSE 1,2 15,7 3,6
29-03-2020 10,2     16,8     22,1 11,9 37 52 73 1.012 1.015 1.019 OSO 1,9 19,4 0,0
28-03-2020 7,1     11,3     16,4 9,3 46 76 97 1.016 1.017 1.020 SO 0,6 13,0 0,0
27-03-2020 7,9     9,6     11,4 3,5 79 91 96 1.012 1.014 1.016 OSO 0,8 15,2 5,7 0,11 0,60
26-03-2020 6,6     10,7     16,6 10,0 45 78 97 1.007 1.010 1.014 SSO 0,9 24,1 0,5
Últims 13 mesos disponibles
04/2020 8,0 11,8 15,0 15,2 15,0 19,2 25,0 17,0 57 80 96 1.006 1.017 1.026 SSO 1,2 35,2 35,0
03/2020 6,6 9,2 12,7 12,3 11,4 15,9 22,1 15,5 52 81 95 1.010 1.014 1.017 OSO 2,4 33,3 34,8
02/2020 6,2 9,4 14,6 14,6 14,5 20,1 28,0 21,8 38 72 91 1.017 1.026 1.032 OSO 5,4 38,9 2,0
01/2020 3,7 8,2 15,9 11,5 11,5 15,8 22,7 19,0 49 81 97 1.014 1.024 1.032 OSO 6,3 63,3 215,3
10/2019 12,7 16,2 19,5 20,1 15,9 24,2 29,8 17,1 38 71 91 1.008 1.016 1.021 N 7,4 7,4 76,9
09/2019 14,5 19,5 22,5 23,2 22,2 27,3 34,5 20,0 51 81 94 1.010 1.018 1.024 N 7,4 7,4 160,9
08/2019 19,2 21,3 23,4 25,8 26,9 30,8 38,5 19,3 58 75 87 1.012 1.017 1.020 N 7,4 7,4 134,4
04/2019 9,0 12,1 15,0 15,1 14,0 18,1 22,6 13,6 45 69 97 999 1.012 1.019 S 7,9 64,8 243,5
03/2019 6,0 8,5 14,8 15,0 13,6 20,1 27,6 21,6 34 60 96 1.013 1.021 1.027 SSO 4,7 33,3 82,5
02/2019 4,8 6,8 10,4 13,8 11,0 18,5 22,9 18,1 38 59 88 1.019 1.027 1.032 S 4,2 37,7 0,0
01/2019 2,5 7,2 15,8 12,2 11,7 16,1 20,4 17,9 39 57 85 1.002 1.019 1.030 SO 5,8 59,4 3,6
12/2018 4,7 8,5 11,0 13,6 13,0 17,7 23,4 18,7 47 69 95 1.006 1.025 1.030 O 5,0 55,5 23,5
11/2018 5,3 11,6 16,2 15,4 14,4 18,3 22,5 17,2 40 69 97 1.000 1.015 1.024 O 5,8 62,9 73,8
Tots els anys disponibles
2018 2,1 14,4 26,3 18,9 8,4 22,5 37,5 35,4 28 65 97 992 1.016 1.034 SE 5,5 70,3 481,4
2017 0,8 14,2 24,5 18,8 8,6 23,4 38,3 37,5 36 68 91 997 1.018 1.034 O 0,2 67,0 460,5
2016 1,6 14,0 28,8 18,7 12,1 23,6 38,2 36,6 18 63 95 993 1.017 1.035 63,0 471,5
2015 2,6 14,2 20,1 18,9 22,8 23,7 42,5 39,9 54 65 79 1.013 1.018 1.029 63,0 921,5
2014 2,0 14,7 25,6 20,2 11,2 25,7 40,2 38,2 28 60 94 992 1.015 1.032 71,0 422,0
Temperatura (°C)
Humitat relativa (%)
Velocitat del vent i ràfega màxima (km/h)
Direcció del vent (°)
Pressió (hPa)
Precipitació (mm)
Nota sobre les dades: s'avisa a l'usuari de la provisionalitat i no oficialitat d'aquestes dades
Logo AVAMET blanc
Web allotjada a Sollutia
Llicència de Creative CommonsLa web d'AVAMET i els seus continguts estan subjectes a una llicència de
Reconeixement - No Comercial - Compartir igual
Últimes estacions: Castelló de la Plana - Grup Sant Agustí (Soci), Llíria - Urb. San Gerardo (Soci), Xàtiva - Ausiàs March (Soci), Gandia - Parpalló/Borrell (AVAMET), Olocau del Rei - La Magdalena (Electra/Soci), Ademuz - IES Ademuz (Soci), La Jana (Ajuntament Soci), Villahermosa del Río - la Cañada (Soci), Benassal (Ajuntament Soci), la Torre de les Maçanes - la Canaleta (Soci) - - -